Time;durP1;ratioP1;P1;durP2;ratioP2;P2;SDS_P1;SDS_P2;PMS_P1;PMS_P2;Temp;Humidity;BMP_temperature;BMP_pressure;BME280_temperature;BME280_humidity;BME280_pressure;Samples;Min_cycle;Max_cycle;Signal;HPM_P1;HPM_P2
2023/04/16 00:02:07;;;;;;;14.53;12.90;;;12.70;77.90;;;15.44;53.16;101804.72;5033377;28;20218;-60
2023/04/16 00:04:34;;;;;;;15.17;13.37;;;12.70;77.90;;;15.44;53.33;101801.19;5032449;28;20667;-61
2023/04/16 00:07:02;;;;;;;16.20;14.10;;;12.70;78.10;;;15.44;53.33;101806.50;5033931;28;20214;-59
2023/04/16 00:09:29;;;;;;;16.10;14.03;;;12.70;78.10;;;15.43;53.12;101805.66;5033564;28;20469;-58
2023/04/16 00:11:57;;;;;;;16.47;13.63;;;12.60;78.00;;;15.43;53.16;101802.19;5032936;28;20594;-60
2023/04/16 00:14:24;;;;;;;15.77;14.17;;;12.70;78.10;;;15.42;53.50;101805.84;5033907;28;20237;-60
2023/04/16 00:16:51;;;;;;;14.20;12.70;;;12.60;78.00;;;15.43;53.34;101807.50;5034581;28;20183;-60
2023/04/16 00:19:18;;;;;;;14.83;13.23;;;12.60;78.10;;;15.43;53.18;101810.13;5034287;28;20551;-60
2023/04/16 00:21:45;;;;;;;14.63;13.10;;;12.60;78.00;;;15.41;53.31;101814.81;5034297;28;20682;-59
2023/04/16 00:24:12;;;;;;;14.60;12.77;;;12.60;77.80;;;15.40;53.16;101818.47;5033668;28;20297;-60
2023/04/16 00:26:39;;;;;;;14.10;12.63;;;12.60;77.80;;;15.37;53.33;101819.66;5034671;28;20213;-62
2023/04/16 00:29:08;;;;;;;15.63;14.00;;;12.60;77.90;;;15.37;52.98;101816.19;5034012;28;20547;-60
2023/04/16 00:31:35;;;;;;;15.80;14.13;;;12.50;77.90;;;15.36;53.23;101822.47;5033457;28;20225;-55
2023/04/16 00:34:03;;;;;;;16.87;13.60;;;12.50;77.80;;;15.33;53.27;101812.25;5035895;28;20599;-60
2023/04/16 00:36:30;;;;;;;20.03;14.07;;;12.50;77.90;;;15.30;53.45;101823.22;5038133;28;20187;-59
2023/04/16 00:38:57;;;;;;;17.97;14.57;;;12.50;77.80;;;15.28;53.36;101819.91;5038313;28;20586;-59
2023/04/16 00:41:25;;;;;;;16.53;13.63;;;12.50;77.90;;;15.26;53.25;101817.41;5037891;28;20187;-58
2023/04/16 00:43:52;;;;;;;13.53;12.13;;;12.50;78.20;;;15.26;53.55;101824.56;5037287;28;20198;-60
2023/04/16 00:46:22;;;;;;;15.33;13.83;;;12.40;78.10;;;15.26;53.35;101827.22;5037691;28;20218;-61
2023/04/16 00:48:52;;;;;;;16.13;14.43;;;12.40;78.90;;;15.25;53.37;101822.91;5037950;28;20257;-57
2023/04/16 00:51:21;;;;;;;15.13;13.63;;;12.40;78.30;;;15.24;53.50;101818.59;5037613;28;20190;-59
2023/04/16 00:53:48;;;;;;;14.60;12.97;;;12.40;78.30;;;15.23;53.58;101830.22;5037518;28;20195;-60
2023/04/16 00:56:15;;;;;;;16.60;13.33;;;12.40;78.30;;;15.21;53.22;101824.28;5037849;28;20200;-57
2023/04/16 00:58:44;;;;;;;16.67;14.50;;;12.40;78.40;;;15.21;53.74;101829.59;5037746;28;20277;-60
2023/04/16 01:01:12;;;;;;;16.13;14.63;;;12.40;78.70;;;15.20;53.65;101825.28;5037380;28;20290;-59
2023/04/16 01:03:44;;;;;;;16.17;14.47;;;12.40;78.60;;;15.19;53.64;101828.94;5036953;28;20194;-62
2023/04/16 01:06:12;;;;;;;16.20;14.40;;;12.30;78.60;;;15.17;53.70;101822.97;5037145;28;20178;-60
2023/04/16 01:08:39;;;;;;;16.57;14.20;;;12.40;78.70;;;15.16;54.04;101826.63;5037124;28;20218;-61
2023/04/16 01:11:06;;;;;;;16.87;14.20;;;12.30;78.70;;;15.14;53.64;101828.66;5037069;28;20194;-59
2023/04/16 01:13:38;;;;;;;15.13;13.60;;;12.30;78.60;;;15.13;53.75;101837.59;5036576;28;20270;-58
2023/04/16 01:16:06;;;;;;;16.53;13.70;;;12.30;78.70;;;15.11;54.00;101839.59;5037326;28;20273;-59
2023/04/16 01:18:34;;;;;;;16.70;14.80;;;12.30;78.90;;;15.09;53.89;101839.78;5037733;28;20289;-59
2023/04/16 01:21:02;;;;;;;16.23;14.53;;;12.30;79.00;;;15.10;53.91;101848.53;5036786;28;20202;-58
2023/04/16 01:23:30;;;;;;;14.03;12.53;;;12.30;79.10;;;15.11;54.04;101842.25;5036650;28;20341;-60
2023/04/16 01:25:57;;;;;;;16.03;14.33;;;12.30;79.20;;;15.12;53.89;101835.97;5036377;28;20218;-60
2023/04/16 01:28:24;;;;;;;17.70;15.83;;;12.30;79.20;;;15.13;53.84;101840.25;5035121;28;20225;-59
2023/04/16 01:30:51;;;;;;;16.50;14.80;;;12.30;79.20;;;15.14;53.97;101844.56;5036908;28;20198;-59
2023/04/16 01:33:18;;;;;;;17.93;16.00;;;12.30;79.20;;;15.12;53.78;101847.38;5035910;28;20195;-60
2023/04/16 01:35:45;;;;;;;16.23;14.47;;;12.30;79.20;;;15.12;54.02;101851.88;5036454;28;20217;-58
2023/04/16 01:38:13;;;;;;;16.80;14.80;;;12.30;79.20;;;15.09;54.14;101847.75;5036154;28;20244;-60
2023/04/16 01:40:40;;;;;;;16.90;15.17;;;12.30;79.10;;;15.09;54.00;101852.22;5036082;28;20278;-60
2023/04/16 01:43:08;;;;;;;16.00;14.27;;;12.20;78.90;;;15.07;54.04;101862.19;5036241;28;20218;-57
2023/04/16 01:45:35;;;;;;;16.80;15.03;;;12.20;79.00;;;15.04;53.98;101859.88;5035269;28;20678;-63
2023/04/16 01:48:03;;;;;;;17.70;15.20;;;12.20;79.10;;;15.03;53.95;101863.50;5036066;28;20210;-57
2023/04/16 01:50:31;;;;;;;16.47;14.67;;;12.20;79.30;;;15.03;53.98;101863.50;5036238;28;20558;-59
2023/04/16 01:52:58;;;;;;;17.80;15.70;;;12.20;79.20;;;15.01;53.93;101866.34;5036096;28;20280;-60
2023/04/16 01:55:26;;;;;;;18.67;15.80;;;12.20;79.40;;;14.99;54.20;101863.06;5035679;28;20206;-58
2023/04/16 01:57:53;;;;;;;18.03;15.90;;;12.20;79.40;;;14.99;54.16;101867.53;5036540;28;20237;-60
2023/04/16 02:00:20;;;;;;;18.10;15.10;;;12.10;79.40;;;14.98;54.04;101865.84;5036002;28;20643;-58
2023/04/16 02:02:48;;;;;;;17.13;15.40;;;12.10;79.40;;;14.98;54.36;101857.91;5035940;28;20200;-60
2023/04/16 02:05:15;;;;;;;16.40;14.70;;;12.10;79.60;;;14.96;54.33;101852.78;5035405;28;20680;-59
2023/04/16 02:07:42;;;;;;;16.27;14.53;;;12.10;79.50;;;14.96;54.38;101857.25;5035389;28;20215;-59
2023/04/16 02:10:09;;;;;;;16.50;14.70;;;12.10;79.60;;;14.97;54.25;101865.06;5035707;28;20248;-60
2023/04/16 02:12:37;;;;;;;18.07;16.17;;;12.10;79.70;;;14.96;54.38;101862.56;5035679;28;20659;-59
2023/04/16 02:15:06;;;;;;;16.10;14.37;;;12.10;79.40;;;14.95;54.40;101861.75;5050268;28;20221;-60
2023/04/16 02:17:33;;;;;;;17.67;15.27;;;12.10;79.50;;;14.94;54.14;101862.75;5035791;28;20186;-60
2023/04/16 02:20:02;;;;;;;16.73;14.67;;;12.10;79.40;;;14.93;54.22;101869.03;5035723;28;20555;-59
2023/04/16 02:22:29;;;;;;;16.63;14.20;;;12.10;79.50;;;14.92;54.28;101867.41;5035150;28;20191;-60
2023/04/16 02:24:56;;;;;;;17.23;15.43;;;12.10;79.60;;;14.90;54.25;101864.91;5050578;28;20678;-61
2023/04/16 02:27:23;;;;;;;18.67;15.93;;;12.10;79.50;;;14.88;54.02;101866.91;5035758;28;20214;-59
2023/04/16 02:29:51;;;;;;;19.13;15.10;;;12.10;79.60;;;14.86;54.24;101874.22;5035163;28;20678;-59
2023/04/16 02:32:18;;;;;;;16.00;14.27;;;12.00;79.60;;;14.85;54.44;101872.59;5035291;28;20202;-58
2023/04/16 02:34:45;;;;;;;16.33;14.30;;;12.00;79.70;;;14.86;54.35;101874.22;5050226;28;20268;-58
2023/04/16 02:37:14;;;;;;;16.90;14.67;;;12.00;79.70;;;14.87;54.41;101867.09;5035334;28;20567;-60
2023/04/16 02:39:42;;;;;;;15.57;13.93;;;12.00;79.70;;;14.87;54.29;101875.88;5035199;28;20224;-58
2023/04/16 02:42:09;;;;;;;17.57;15.73;;;12.00;79.70;;;14.85;54.25;101872.59;5035612;28;20191;-59
2023/04/16 02:44:36;;;;;;;17.93;15.47;;;12.00;79.70;;;14.84;54.25;101878.88;5035050;28;20214;-60
2023/04/16 02:47:05;;;;;;;16.90;15.10;;;12.00;79.70;;;14.80;54.23;101890.84;5035588;28;20214;-60
2023/04/16 02:49:32;;;;;;;15.23;13.63;;;12.00;79.80;;;14.80;54.47;101882.03;5034912;28;20690;-60
2023/04/16 02:51:58;;;;;;;17.83;15.17;;;12.00;80.00;;;14.78;54.50;101892.84;5035061;28;20201;-59
2023/04/16 02:54:25;;;;;;;16.97;14.03;;;11.90;80.00;;;14.79;54.67;101889.16;5034542;28;20221;-59
2023/04/16 02:56:52;;;;;;;16.57;14.87;;;12.00;80.10;;;14.79;54.32;101888.34;5033667;28;20210;-58
2023/04/16 02:59:19;;;;;;;17.53;15.43;;;12.00;80.10;;;14.79;54.80;101894.47;5035116;28;20202;-59
2023/04/16 03:01:46;;;;;;;17.17;14.77;;;11.90;80.10;;;14.80;54.49;101901.44;5035126;28;20199;-58
2023/04/16 03:04:15;;;;;;;14.97;12.87;;;11.90;80.30;;;14.80;54.69;101900.59;5034420;28;20297;-60
2023/04/16 03:06:42;;;;;;;15.13;13.53;;;11.90;80.20;;;14.83;54.96;101900.25;5034830;28;20197;-61
2023/04/16 03:09:09;;;;;;;17.17;13.97;;;12.00;80.30;;;14.82;54.61;101902.09;5034809;28;20639;-61
2023/04/16 03:11:36;;;;;;;16.63;14.40;;;12.00;80.20;;;14.82;54.77;101899.44;5034302;28;20201;-59
2023/04/16 03:14:03;;;;;;;15.27;13.67;;;12.00;80.20;;;14.80;54.76;101911.19;5033885;28;20214;-60
2023/04/16 03:16:30;;;;;;;18.43;14.50;;;11.90;80.00;;;14.79;54.77;101904.25;5033455;28;20191;-58
2023/04/16 03:18:57;;;;;;;16.87;14.50;;;11.90;80.00;;;14.78;54.88;101908.75;5034335;28;20205;-62
2023/04/16 03:21:26;;;;;;;16.87;15.07;;;11.90;80.30;;;14.78;54.77;101914.03;5034488;28;20217;-60
2023/04/16 03:23:54;;;;;;;14.47;12.97;;;11.90;80.50;;;14.78;54.82;101908.75;5034241;28;20208;-60
2023/04/16 03:26:22;;;;;;;15.57;13.97;;;11.90;80.40;;;14.81;54.98;101916.31;5034272;28;20217;-59
2023/04/16 03:28:49;;;;;;;15.77;14.17;;;11.90;80.50;;;14.85;54.94;101920.31;5033178;28;20575;-58
2023/04/16 03:31:16;;;;;;;17.37;14.97;;;11.90;80.50;;;14.87;54.68;101917.47;5034747;28;20264;-58
2023/04/16 03:33:43;;;;;;;16.87;15.13;;;12.00;80.40;;;14.88;54.70;101914.63;5034212;28;20191;-57
2023/04/16 03:36:10;;;;;;;15.33;13.53;;;12.00;80.40;;;14.91;54.98;101913.47;5034469;28;20655;-60
2023/04/16 03:38:38;;;;;;;15.70;14.03;;;12.00;80.60;;;14.95;54.80;101913.94;5034482;28;20187;-59
2023/04/16 03:41:05;;;;;;;16.23;14.43;;;12.00;80.20;;;14.95;54.64;101913.94;5034068;28;20210;-59
2023/04/16 03:43:32;;;;;;;16.67;14.70;;;12.00;80.10;;;14.95;54.54;101916.59;5034078;28;20195;-60
2023/04/16 03:45:59;;;;;;;21.00;14.97;;;12.10;80.20;;;14.93;54.29;101921.25;5034225;28;20218;-59
2023/04/16 03:48:26;;;;;;;17.27;15.10;;;12.00;80.00;;;14.90;54.43;101928.53;5034333;28;20222;-59
2023/04/16 03:50:53;;;;;;;16.43;14.57;;;12.00;80.10;;;14.88;54.52;101919.94;5034129;28;20186;-58
2023/04/16 03:53:20;;;;;;;16.43;14.80;;;12.00;80.10;;;14.89;54.65;101924.25;5033923;28;20582;-59
2023/04/16 03:55:51;;;;;;;15.57;13.97;;;12.00;80.10;;;14.89;54.63;101921.59;5049505;28;20214;-61
2023/04/16 03:58:18;;;;;;;15.83;14.20;;;12.00;80.00;;;14.90;54.71;101923.22;5034162;28;20193;-59
2023/04/16 04:00:46;;;;;;;17.07;15.27;;;12.00;80.00;;;14.91;54.39;101922.25;5034051;28;20561;-59
2023/04/16 04:03:15;;;;;;;15.47;13.93;;;12.00;80.00;;;14.91;54.32;101919.59;5034368;28;20678;-59
2023/04/16 04:05:43;;;;;;;17.93;16.03;;;12.00;80.00;;;14.93;54.50;101918.59;5033114;28;20642;-55
2023/04/16 04:08:10;;;;;;;17.00;15.23;;;12.00;80.10;;;14.91;54.30;101919.59;5035332;28;20206;-58
2023/04/16 04:10:37;;;;;;;17.33;15.27;;;12.00;80.00;;;14.93;54.36;101919.41;5034018;28;20202;-60
2023/04/16 04:13:06;;;;;;;18.77;15.37;;;12.00;80.00;;;14.90;54.41;101909.97;5034009;28;20277;-59
2023/04/16 04:15:33;;;;;;;20.10;17.47;;;12.00;79.90;;;14.90;54.51;101917.94;5033352;28;20218;-60
2023/04/16 04:18:00;;;;;;;18.00;16.10;;;12.00;79.90;;;14.89;54.31;101926.91;5033848;28;20559;-59
2023/04/16 04:20:27;;;;;;;17.87;15.97;;;12.00;79.80;;;14.87;54.31;101923.59;5033761;28;20551;-61
2023/04/16 04:22:54;;;;;;;18.10;16.07;;;12.00;79.80;;;14.84;54.37;101934.53;5033993;28;20190;-59
2023/04/16 04:25:21;;;;;;;17.90;15.57;;;11.90;79.60;;;14.83;54.52;101932.06;5032839;28;20214;-60
2023/04/16 04:27:48;;;;;;;17.90;16.10;;;12.00;79.90;;;14.84;54.51;101934.53;5033817;28;20687;-59
2023/04/16 04:30:17;;;;;;;19.67;16.67;;;11.90;79.80;;;14.87;54.55;101931.56;5033501;28;20201;-59
2023/04/16 04:32:44;;;;;;;16.63;14.83;;;11.90;79.80;;;14.86;54.43;101937.00;5033720;28;20198;-59
2023/04/16 04:35:10;;;;;;;17.87;15.47;;;12.00;79.90;;;14.87;54.55;101946.63;5033105;28;20264;-59
2023/04/16 04:37:37;;;;;;;17.53;15.63;;;12.00;79.70;;;14.86;54.44;101951.09;5049151;28;20187;-59
2023/04/16 04:40:06;;;;;;;18.23;15.50;;;12.00;79.60;;;14.86;54.14;101948.44;5033546;28;20201;-58
2023/04/16 04:42:33;;;;;;;17.90;15.30;;;12.00;79.50;;;14.86;54.20;101947.59;5033137;28;20190;-59
2023/04/16 04:45:00;;;;;;;17.77;15.87;;;12.00;79.40;;;14.86;54.35;101943.13;5048328;28;20215;-56
2023/04/16 04:47:29;;;;;;;16.53;14.73;;;12.00;79.50;;;14.88;54.25;101956.25;5033261;28;20745;-60
2023/04/16 04:49:56;;;;;;;17.73;15.90;;;12.00;79.50;;;14.87;54.03;101960.72;5033383;28;20195;-60
2023/04/16 04:52:23;;;;;;;19.33;16.27;;;12.00;79.30;;;14.85;54.05;101957.41;5033472;28;20643;-57
2023/04/16 04:54:50;;;;;;;20.17;16.80;;;12.00;79.30;;;14.83;54.02;101959.38;5033165;28;20219;-60
2023/04/16 04:57:17;;;;;;;17.50;15.70;;;12.00;79.20;;;14.81;53.92;101965.84;5032232;28;20221;-60
2023/04/16 04:59:44;;;;;;;18.20;15.47;;;12.00;79.20;;;14.81;54.33;101971.97;5032970;28;20203;-57
2023/04/16 05:02:11;;;;;;;20.93;16.50;;;11.90;79.20;;;14.80;54.33;101973.00;5032921;28;20293;-58
2023/04/16 05:04:40;;;;;;;17.70;15.87;;;11.90;79.30;;;14.80;54.02;101970.34;5033145;28;20596;-60
2023/04/16 05:07:07;;;;;;;20.30;17.10;;;11.90;79.40;;;14.81;54.05;101971.16;5033319;28;20698;-57
2023/04/16 05:09:34;;;;;;;18.80;15.70;;;11.90;79.40;;;14.81;54.20;101973.81;5032998;28;20225;-59
2023/04/16 05:12:01;;;;;;;18.67;16.70;;;11.90;79.40;;;14.81;54.21;101979.09;5033064;28;20567;-57
2023/04/16 05:14:28;;;;;;;21.63;16.33;;;11.90;79.60;;;14.81;54.21;101982.59;5032716;28;20221;-58
2023/04/16 05:16:55;;;;;;;17.87;16.03;;;11.90;79.40;;;14.81;53.88;101982.59;5032879;28;20206;-61
2023/04/16 05:19:22;;;;;;;20.40;14.97;;;11.90;79.50;;;14.82;54.09;101981.59;5032839;28;20282;-58
2023/04/16 05:21:50;;;;;;;17.87;15.90;;;11.90;79.40;;;14.80;54.10;101980.97;5035137;28;20194;-59
2023/04/16 05:24:19;;;;;;;18.80;16.50;;;11.90;79.40;;;14.82;54.07;101980.78;5036080;28;20215;-60
2023/04/16 05:26:46;;;;;;;17.27;14.80;;;11.90;79.40;;;14.82;54.22;101983.41;5035480;28;20198;-60
2023/04/16 05:29:12;;;;;;;16.90;14.90;;;11.90;79.40;;;14.84;53.94;101990.22;5036855;28;20215;-58
2023/04/16 05:31:40;;;;;;;19.23;15.10;;;11.90;79.20;;;14.87;53.72;101997.00;5036476;28;20215;-61
2023/04/16 05:34:07;;;;;;;17.70;15.80;;;11.90;79.20;;;14.90;53.94;101997.47;5036188;28;20230;-60
2023/04/16 05:36:34;;;;;;;19.57;15.03;;;12.00;79.20;;;14.93;53.88;101994.47;5036572;28;20262;-59
2023/04/16 05:39:02;;;;;;;18.87;15.40;;;12.00;79.00;;;14.97;53.61;101992.31;5036231;28;20590;-58
2023/04/16 05:41:29;;;;;;;18.97;15.87;;;12.00;78.90;;;15.00;53.60;101997.25;5036164;28;20233;-60
2023/04/16 05:43:56;;;;;;;16.30;14.53;;;12.00;78.80;;;15.04;53.34;102003.06;5035845;28;20233;-58
2023/04/16 05:46:23;;;;;;;18.43;16.07;;;12.00;78.60;;;15.06;53.29;102003.72;5035954;28;20282;-60
2023/04/16 05:48:50;;;;;;;20.63;14.00;;;12.10;78.60;;;15.07;53.15;102008.81;5035964;28;20218;-56
2023/04/16 05:51:18;;;;;;;16.90;14.50;;;12.10;78.50;;;15.08;53.01;102009.66;5036546;28;20197;-57
2023/04/16 05:53:45;;;;;;;18.27;15.43;;;12.10;78.40;;;15.09;53.11;102011.31;5036649;28;20186;-59
2023/04/16 05:56:13;;;;;;;19.67;14.53;;;12.10;78.20;;;15.12;53.06;102016.28;5038932;28;20195;-61
2023/04/16 05:58:40;;;;;;;18.37;14.57;;;12.20;78.30;;;15.13;53.15;102008.16;5039473;28;20194;-60
2023/04/16 06:01:07;;;;;;;15.80;13.97;;;12.20;78.20;;;15.17;53.16;102021.88;5038635;28;20248;-58
2023/04/16 06:03:34;;;;;;;17.27;13.37;;;12.20;78.20;;;15.22;53.10;102022.19;5036219;28;20248;-59
2023/04/16 06:06:01;;;;;;;15.20;13.63;;;12.20;78.00;;;15.24;52.82;102010.41;5051487;28;20217;-60
2023/04/16 06:08:28;;;;;;;17.00;14.20;;;12.30;78.00;;;15.27;52.75;102022.50;5050853;28;20218;-60
2023/04/16 06:10:55;;;;;;;18.70;14.70;;;12.30;77.80;;;15.31;52.83;102026.44;5035504;28;20202;-59
2023/04/16 06:13:24;;;;;;;16.33;14.63;;;12.30;77.70;;;15.33;52.54;102027.13;5035360;28;20201;-58
2023/04/16 06:15:51;;;;;;;18.50;14.63;;;12.30;77.50;;;15.36;52.50;102034.72;5035587;28;20628;-60
2023/04/16 06:18:18;;;;;;;15.23;13.73;;;12.40;77.50;;;15.40;52.49;102036.06;5035686;28;20191;-60
2023/04/16 06:20:45;;;;;;;17.47;12.70;;;12.40;77.60;;;15.46;52.46;102024.75;5035668;28;20199;-59
2023/04/16 06:23:11;;;;;;;14.57;13.07;;;12.40;77.40;;;15.50;52.57;102041.97;5035527;28;20190;-61
2023/04/16 06:25:38;;;;;;;16.60;14.03;;;12.50;77.40;;;15.54;52.04;102030.88;5050462;28;20217;-58
2023/04/16 06:28:05;;;;;;;17.90;13.10;;;12.50;77.10;;;15.57;52.17;102037.63;5035397;28;20249;-60
2023/04/16 06:30:34;;;;;;;14.43;12.93;;;12.50;77.00;;;15.60;52.35;102042.59;5035032;28;20297;-62
2023/04/16 06:33:01;;;;;;;15.57;13.83;;;12.60;77.00;;;15.65;52.06;102045.53;5035308;28;20194;-59
2023/04/16 06:35:28;;;;;;;17.37;14.53;;;12.60;76.80;;;15.66;51.81;102047.22;5034850;28;20237;-60
2023/04/16 06:37:55;;;;;;;16.30;14.60;;;12.60;76.70;;;15.69;51.98;102046.03;5035389;28;20190;-60
2023/04/16 06:40:22;;;;;;;20.03;16.17;;;12.60;76.60;;;15.72;51.84;102046.50;5035104;28;20262;-61
2023/04/16 06:42:49;;;;;;;18.67;16.60;;;12.60;76.50;;;15.76;51.68;102047.78;5036227;28;20191;-61
2023/04/16 06:45:16;;;;;;;17.13;15.10;;;12.70;76.50;;;15.78;51.55;102050.28;5035567;28;20209;-58
2023/04/16 06:47:45;;;;;;;16.80;14.60;;;12.70;76.30;;;15.80;51.46;102042.97;5035385;28;20197;-59
2023/04/16 06:50:12;;;;;;;20.43;15.57;;;12.70;76.10;;;15.80;51.45;102043.81;5035249;28;20632;-61
2023/04/16 06:52:39;;;;;;;20.70;16.43;;;12.80;76.00;;;15.80;51.57;102053.59;5035494;28;20675;-58
2023/04/16 06:55:08;;;;;;;17.07;14.53;;;12.80;75.90;;;15.80;51.21;102056.25;5034790;28;20207;-60
2023/04/16 06:57:35;;;;;;;16.27;14.00;;;12.80;75.90;;;15.78;51.35;102056.44;5035130;28;20195;-59
2023/04/16 07:00:05;;;;;;;17.03;15.03;;;12.80;75.80;;;15.79;51.16;102060.72;5034886;28;20190;-59
2023/04/16 07:02:32;;;;;;;15.43;13.83;;;12.80;75.60;;;15.79;50.96;102060.72;5034945;28;20563;-61
2023/04/16 07:05:00;;;;;;;18.13;14.40;;;12.80;75.60;;;15.78;51.12;102056.44;5034251;28;20218;-60
2023/04/16 07:07:27;;;;;;;16.03;14.30;;;12.80;75.60;;;15.78;50.90;102067.03;5034794;28;20217;-57
2023/04/16 07:09:54;;;;;;;16.43;14.60;;;12.80;75.60;;;15.78;51.09;102061.75;5034441;28;20214;-61
2023/04/16 07:12:22;;;;;;;15.70;14.07;;;12.80;75.60;;;15.77;51.16;102070.69;5034471;28;20659;-56
2023/04/16 07:14:49;;;;;;;15.57;13.63;;;12.80;75.60;;;15.79;50.87;102063.38;5034005;28;20214;-59
2023/04/16 07:17:16;;;;;;;17.80;13.27;;;12.80;75.70;;;15.79;50.93;102073.16;5034365;28;20210;-59
2023/04/16 07:19:43;;;;;;;14.97;12.83;;;12.80;75.60;;;15.80;50.97;102064.22;5034422;28;20197;-59
2023/04/16 07:22:11;;;;;;;15.90;13.67;;;12.80;75.60;;;15.81;51.21;102068.53;5034722;28;20193;-59
2023/04/16 07:24:38;;;;;;;13.23;11.83;;;12.80;75.60;;;15.81;51.19;102069.31;5033790;28;20524;-59
2023/04/16 07:27:05;;;;;;;13.07;11.77;;;12.80;75.60;;;15.85;51.10;102067.16;5033088;28;20203;-57
2023/04/16 07:29:32;;;;;;;17.30;14.27;;;12.80;75.70;;;15.86;51.26;102069.63;5033937;28;20679;-59
2023/04/16 07:31:59;;;;;;;15.30;13.70;;;12.90;75.70;;;15.91;51.06;102071.75;5034430;28;20199;-59
2023/04/16 07:34:26;;;;;;;13.40;12.10;;;12.90;75.70;;;15.98;51.12;102078.00;5032082;28;20234;-59
2023/04/16 07:36:53;;;;;;;16.97;15.13;;;12.90;75.80;;;16.03;50.86;102075.66;5033977;28;20198;-59
2023/04/16 07:39:21;;;;;;;16.07;13.77;;;12.90;75.50;;;16.07;50.60;102077.78;5034171;28;20652;-61
2023/04/16 07:41:48;;;;;;;18.57;14.97;;;13.00;75.50;;;16.08;50.50;102076.78;5034459;28;20278;-60
2023/04/16 07:44:16;;;;;;;15.43;13.00;;;13.00;75.20;;;16.08;50.65;102078.59;5033166;28;20210;-61
2023/04/16 07:46:43;;;;;;;14.07;12.57;;;13.00;75.10;;;16.08;50.51;102079.44;5034324;28;20686;-58
2023/04/16 07:49:14;;;;;;;22.33;14.37;;;13.00;75.00;;;16.10;50.43;102090.72;5037518;28;20366;-59
2023/04/16 07:51:41;;;;;;;15.10;12.70;;;13.00;74.80;;;16.12;50.92;102094.00;5034295;28;20232;-59
2023/04/16 07:54:09;;;;;;;14.07;12.67;;;13.10;75.10;;;16.13;50.65;102093.03;5034065;28;20203;-60
2023/04/16 07:56:37;;;;;;;14.70;13.30;;;13.10;75.00;;;16.15;50.39;102101.63;5034323;28;20229;-60
2023/04/16 07:59:04;;;;;;;14.83;13.07;;;13.10;74.90;;;16.18;50.57;102092.50;5034495;28;20202;-59
2023/04/16 08:01:51;;;;;;;17.03;13.20;;;13.10;74.90;;;16.18;50.38;102101.28;5034394;28;20221;-59
2023/04/16 08:04:23;;;;;;;14.80;12.80;;;13.10;74.80;;;16.20;50.42;102099.28;5033778;28;20207;-61
2023/04/16 08:06:50;;;;;;;15.53;13.30;;;13.10;74.80;;;16.22;50.23;102105.25;5032873;28;20187;-58
2023/04/16 08:09:18;;;;;;;16.70;13.17;;;13.20;74.70;;;16.26;50.42;102108.34;5033840;28;20218;-58
2023/04/16 08:11:48;;;;;;;15.10;13.37;;;13.20;74.80;;;16.30;50.21;102106.19;5033701;28;20651;-61
2023/04/16 08:14:19;;;;;;;16.47;13.50;;;13.20;74.90;;;16.32;50.09;102106.81;5048782;28;20222;-62
2023/04/16 08:16:46;;;;;;;15.13;12.47;;;13.30;74.60;;;16.33;50.05;102103.97;5032811;28;20529;-60
2023/04/16 08:19:13;;;;;;;15.03;13.03;;;13.30;74.40;;;16.36;50.25;102113.41;5033862;28;20194;-61
2023/04/16 08:21:40;;;;;;;13.37;12.07;;;13.30;74.40;;;16.39;50.14;102113.91;5032790;28;20208;-58
2023/04/16 08:24:07;;;;;;;13.93;12.43;;;13.40;74.50;;;16.44;49.98;102116.03;5033417;28;20707;-61
2023/04/16 08:26:34;;;;;;;13.80;12.13;;;13.40;74.30;;;16.48;49.72;102117.31;5033641;28;20212;-57
2023/04/16 08:29:02;;;;;;;15.73;12.53;;;13.40;74.20;;;16.52;49.54;102118.66;5033867;28;20226;-58
2023/04/16 08:31:29;;;;;;;13.67;11.90;;;13.40;74.00;;;16.57;49.84;102121.63;5033635;28;20194;-59
2023/04/16 08:33:56;;;;;;;13.67;12.27;;;13.50;73.90;;;16.63;49.69;102127.03;5032165;28;20246;-61
2023/04/16 08:36:23;;;;;;;15.77;12.97;;;13.60;73.90;;;16.71;49.38;102118.16;5033144;28;20651;-58
2023/04/16 08:38:51;;;;;;;14.27;12.87;;;13.60;73.70;;;16.82;49.46;102121.19;5033672;28;20191;-58
2023/04/16 08:41:20;;;;;;;13.50;12.13;;;13.60;73.60;;;16.96;48.99;102126.72;5033466;28;20210;-59
2023/04/16 08:43:49;;;;;;;15.97;14.20;;;13.70;73.70;;;17.07;48.94;102129.75;5033616;28;20536;-60
2023/04/16 08:46:21;;;;;;;15.33;12.27;;;13.80;73.20;;;17.15;48.83;102134.16;5031919;28;20207;-56
2023/04/16 08:48:52;;;;;;;15.57;13.03;;;13.90;73.20;;;17.25;48.24;102132.88;5032285;28;20241;-60
2023/04/16 08:51:22;;;;;;;16.07;14.37;;;14.00;73.00;;;17.34;48.44;102138.94;5033449;28;20687;-62
2023/04/16 08:53:55;;;;;;;14.57;12.87;;;14.10;72.50;;;17.42;48.03;102139.66;5032501;28;20582;-59
2023/04/16 08:56:23;;;;;;;15.17;13.57;;;14.10;72.10;;;17.49;47.77;102142.41;5037066;28;20233;-58
2023/04/16 08:58:53;;;;;;;14.57;12.57;;;14.20;72.00;;;17.58;47.57;102139.50;5037421;28;20213;-61
2023/04/16 09:01:25;;;;;;;13.80;11.23;;;14.30;71.80;;;17.70;47.31;102141.69;5037695;28;20527;-56
2023/04/16 09:03:53;;;;;;;12.77;11.57;;;14.40;71.50;;;17.81;47.18;102143.84;5036892;28;20210;-62
2023/04/16 09:06:20;;;;;;;12.97;11.67;;;14.50;71.50;;;17.94;46.61;102146.69;5037064;28;20198;-61
2023/04/16 09:08:48;;;;;;;16.17;12.23;;;14.60;71.00;;;18.08;46.84;102145.81;5037312;28;20547;-57
2023/04/16 09:11:17;;;;;;;14.40;12.90;;;14.70;70.40;;;18.15;46.01;102139.53;5037129;28;20202;-59
2023/04/16 09:13:45;;;;;;;15.90;12.83;;;14.70;69.50;;;18.18;45.63;102146.34;5035943;28;20710;-58
2023/04/16 09:16:13;;;;;;;15.10;12.10;;;14.80;69.40;;;18.21;45.75;102136.09;5037507;28;20191;-61
2023/04/16 09:18:41;;;;;;;16.37;13.30;;;14.90;69.10;;;18.27;45.53;102137.19;5036583;28;20190;-60
2023/04/16 09:21:12;;;;;;;14.13;12.63;;;14.90;68.70;;;18.28;45.11;102141.47;5037702;28;20209;-61
2023/04/16 09:23:40;;;;;;;16.23;13.03;;;14.90;68.10;;;18.33;44.74;102136.41;5036497;28;20197;-61
2023/04/16 09:26:07;;;;;;;14.17;12.63;;;15.00;67.80;;;18.37;44.96;102135.03;5037148;28;20190;-59
2023/04/16 09:28:42;;;;;;;15.00;13.37;;;15.00;67.80;;;18.44;44.87;102140.41;5036985;28;20663;-59
2023/04/16 09:31:12;;;;;;;15.10;12.70;;;15.10;67.70;;;18.59;44.79;102139.34;5036669;28;20210;-57
2023/04/16 09:33:41;;;;;;;15.20;13.60;;;15.20;68.10;;;18.76;44.66;102146.06;5036167;28;20218;-59
2023/04/16 09:36:09;;;;;;;13.80;12.37;;;15.30;67.90;;;18.92;44.08;102139.63;5036635;28;20195;-62
2023/04/16 09:38:47;;;;;;;18.90;15.27;;;15.40;67.30;;;19.06;43.76;102140.53;5037273;28;20550;-59
2023/04/16 09:41:15;;;;;;;15.27;11.87;;;15.50;66.50;;;19.24;43.88;102151.50;5036059;28;20202;-60
2023/04/16 09:43:56;;;;;;;13.50;12.10;;;15.60;67.00;;;19.49;43.36;102152.72;5030760;28;20203;-60
2023/04/16 09:46:28;;;;;;;16.07;12.90;;;15.80;67.00;;;19.78;43.01;102141.72;5036267;28;20515;-59
2023/04/16 09:48:57;;;;;;;14.47;12.97;;;16.00;66.40;;;19.95;41.83;102151.03;5035980;28;20195;-61
2023/04/16 09:51:25;;;;;;;15.67;13.10;;;16.20;65.10;;;20.04;41.76;102155.19;5052467;28;20281;-62
2023/04/16 09:53:55;;;;;;;17.57;12.87;;;16.30;64.60;;;20.25;41.39;102168.41;5036708;28;20199;-60
2023/04/16 09:56:24;;;;;;;13.67;12.30;;;16.40;64.40;;;20.44;40.91;102157.97;5036197;28;20589;-60
2023/04/16 09:58:57;;;;;;;14.53;12.20;;;16.60;63.60;;;20.48;40.30;102161.88;5036343;28;20223;-60
2023/04/16 10:01:24;;;;;;;15.77;13.20;;;16.70;62.70;;;20.43;40.05;102167.84;5036772;28;20616;-59
2023/04/16 10:03:54;;;;;;;14.80;12.73;;;16.70;62.10;;;20.37;40.90;102162.50;5034632;28;20253;-57